Terminal Aerodrome Forecast
Issued by NWS Charleston, WV

Current Version | Previous Version | Graphics & Text | Print | Product List | Glossary On
Versions: 1 2 3 4 5 6 7 8 9 10 11 12 13 14 15 16 17 18 19 20 21 22
000
FTUS41 KRLX 031739
TAFCRW
TAF
KCRW 031739Z 0318/0418 00000KT P6SM SCT030 SCT090
     FM031900 VRB03KT P6SM VCSH SCT045
     FM032000 VRB05KT P6SM VCTS SCT040CB
     FM032300 VRB03KT P6SM BKN045
     FM040800 00000KT 2SM BR FEW001
     FM041200 00000KT 4SM BR SCT045
     FM041300 00000KT P6SM BKN045
     FM041700 00000KT P6SM VCTS BKN045CB=

USA.gov is the U.S. government's official web portal to all federal, state and local government web resources and services.